Time;durP1;ratioP1;P1;durP2;ratioP2;P2;SDS_P1;SDS_P2;PMS_P1;PMS_P2;Temp;Humidity;BMP_temperature;BMP_pressure;BME280_temperature;BME280_humidity;BME280_pressure;Samples;Min_cycle;Max_cycle;Signal;HPM_P1;HPM_P2
2023/08/13 00:02:17;;;;;;;5.25;2.20;;;;;;;;;;5053146;28;20103;-73
2023/08/13 00:04:43;;;;;;;2.95;2.05;;;;;;;;;;5052987;28;20043;-73
2023/08/13 00:07:10;;;;;;;2.33;2.13;;;;;;;;;;5052466;28;20100;-73
2023/08/13 00:09:36;;;;;;;6.50;2.25;;;;;;;;;;5051777;28;20083;-72
2023/08/13 00:12:02;;;;;;;5.22;2.45;;;;;;;;;;5052888;28;20025;-73
2023/08/13 00:14:29;;;;;;;4.50;2.20;;;;;;;;;;5052918;28;20031;-72
2023/08/13 00:16:55;;;;;;;6.35;2.08;;;;;;;;;;5052690;28;20024;-73
2023/08/13 00:19:21;;;;;;;4.60;2.10;;;;;;;;;;5052806;28;20481;-73
2023/08/13 00:21:47;;;;;;;3.95;1.73;;;;;;;;;;5052853;28;20029;-72
2023/08/13 00:24:13;;;;;;;4.00;2.10;;;;;;;;;;5052863;28;20150;-72
2023/08/13 00:26:39;;;;;;;4.30;2.20;;;;;;;;;;5052729;28;20029;-72
2023/08/13 00:29:05;;;;;;;4.60;2.28;;;;;;;;;;5052245;28;20112;-72
2023/08/13 00:31:32;;;;;;;3.53;2.40;;;;;;;;;;5052570;28;20048;-73
2023/08/13 00:33:58;;;;;;;3.67;2.20;;;;;;;;;;5052952;28;20047;-72
2023/08/13 00:36:24;;;;;;;3.65;2.10;;;;;;;;;;5052629;28;20021;-72
2023/08/13 00:38:50;;;;;;;4.10;2.40;;;;;;;;;;5050678;28;20644;-72
2023/08/13 00:41:16;;;;;;;3.97;2.42;;;;;;;;;;5052508;28;20025;-72
2023/08/13 00:43:42;;;;;;;3.53;2.17;;;;;;;;;;5052281;28;20507;-71
2023/08/13 00:46:08;;;;;;;4.57;2.40;;;;;;;;;;5050883;28;20051;-72
2023/08/13 00:48:37;;;;;;;4.07;2.75;;;;;;;;;;5051545;28;20493;-73
2023/08/13 00:51:04;;;;;;;3.35;2.33;;;;;;;;;;5052159;28;20070;-73
2023/08/13 00:53:30;;;;;;;3.38;2.30;;;;;;;;;;5051704;28;20025;-72
2023/08/13 00:55:57;;;;;;;7.03;2.42;;;;;;;;;;5051722;28;20025;-72
2023/08/13 00:58:23;;;;;;;6.75;2.40;;;;;;;;;;5050244;28;20244;-73
2023/08/13 01:00:49;;;;;;;4.55;2.30;;;;;;;;;;5052277;28;20025;-73
2023/08/13 01:03:15;;;;;;;4.38;2.40;;;;;;;;;;5052201;28;20039;-72
2023/08/13 01:05:41;;;;;;;5.78;2.78;;;;;;;;;;5051933;28;20112;-72
2023/08/13 01:08:19;;;;;;;5.50;2.33;;;;;;;;;;5051416;28;20505;-73
2023/08/13 01:10:49;;;;;;;3.42;2.50;;;;;;;;;;5052013;28;20028;-73
2023/08/13 01:13:21;;;;;;;3.90;2.40;;;;;;;;;;5051939;28;20090;-72
2023/08/13 01:15:48;;;;;;;2.95;2.60;;;;;;;;;;5052144;28;20104;-72
2023/08/13 01:18:15;;;;;;;4.38;2.47;;;;;;;;;;5051228;28;20107;-72
2023/08/13 01:20:42;;;;;;;3.10;2.17;;;;;;;;;;5051611;28;20033;-72
2023/08/13 01:23:08;;;;;;;5.97;2.92;;;;;;;;;;5050411;28;20031;-72
2023/08/13 01:25:35;;;;;;;4.32;2.50;;;;;;;;;;5051726;28;20021;-72
2023/08/13 01:28:12;;;;;;;5.75;2.65;;;;;;;;;;5050287;28;20029;-72
2023/08/13 01:30:41;;;;;;;4.60;2.72;;;;;;;;;;5051526;28;20143;-73
2023/08/13 01:33:08;;;;;;;4.95;2.70;;;;;;;;;;5051486;28;20366;-71
2023/08/13 01:35:35;;;;;;;5.63;2.97;;;;;;;;;;5051468;28;20563;-72
2023/08/13 01:38:02;;;;;;;4.72;2.50;;;;;;;;;;5050830;28;20064;-72
2023/08/13 01:40:29;;;;;;;2.90;2.03;;;;;;;;;;5051380;28;20033;-72
2023/08/13 01:42:55;;;;;;;7.65;2.60;;;;;;;;;;5051291;28;20126;-72
2023/08/13 01:45:21;;;;;;;3.00;2.65;;;;;;;;;;5051232;28;20029;-72
2023/08/13 01:47:47;;;;;;;5.97;2.85;;;;;;;;;;5050357;28;20029;-71
2023/08/13 01:50:13;;;;;;;5.22;2.50;;;;;;;;;;5050760;28;20040;-71
2023/08/13 01:52:39;;;;;;;3.67;2.83;;;;;;;;;;5050884;28;20537;-71
2023/08/13 01:55:06;;;;;;;4.32;2.40;;;;;;;;;;5050941;28;20021;-71
2023/08/13 01:57:32;;;;;;;3.75;2.25;;;;;;;;;;5050575;28;20114;-71
2023/08/13 01:59:58;;;;;;;3.13;2.13;;;;;;;;;;5050469;28;20037;-72
2023/08/13 02:02:24;;;;;;;3.63;2.50;;;;;;;;;;5049328;28;20020;-71
2023/08/13 02:04:50;;;;;;;6.18;2.67;;;;;;;;;;5049797;28;20439;-71
2023/08/13 02:07:17;;;;;;;5.10;2.63;;;;;;;;;;5050093;28;20684;-72
2023/08/13 02:09:43;;;;;;;4.15;2.40;;;;;;;;;;5050674;28;20033;-73
2023/08/13 02:12:09;;;;;;;2.78;2.28;;;;;;;;;;5050461;28;20033;-71
2023/08/13 02:14:35;;;;;;;3.05;2.50;;;;;;;;;;5072989;22;20094;-75
2023/08/13 02:17:01;;;;;;;4.72;2.10;;;;;;;;;;5050432;28;20090;-74
2023/08/13 02:19:27;;;;;;;5.72;2.75;;;;;;;;;;5050909;28;20025;-74
2023/08/13 02:21:53;;;;;;;3.45;2.40;;;;;;;;;;5050900;28;20447;-74
2023/08/13 02:24:19;;;;;;;3.22;2.38;;;;;;;;;;5050989;28;20033;-74
2023/08/13 02:26:45;;;;;;;3.90;2.97;;;;;;;;;;5050644;28;20025;-74
2023/08/13 02:29:11;;;;;;;3.30;2.33;;;;;;;;;;5049030;28;20412;-74
2023/08/13 02:31:37;;;;;;;3.35;2.45;;;;;;;;;;5050701;28;20025;-74
2023/08/13 02:34:03;;;;;;;3.45;2.22;;;;;;;;;;5048205;28;20024;-73
2023/08/13 02:36:29;;;;;;;2.60;2.38;;;;;;;;;;5050525;28;20065;-74
2023/08/13 02:38:55;;;;;;;5.43;2.80;;;;;;;;;;5050255;28;20056;-74
2023/08/13 02:41:21;;;;;;;6.13;2.90;;;;;;;;;;5049367;28;20098;-74
2023/08/13 02:43:51;;;;;;;4.43;2.78;;;;;;;;;;5050603;28;20025;-74
2023/08/13 02:46:17;;;;;;;9.27;2.60;;;;;;;;;;5050912;28;20148;-74
2023/08/13 02:48:44;;;;;;;4.57;2.40;;;;;;;;;;5050035;28;20052;-74
2023/08/13 02:51:10;;;;;;;3.78;2.25;;;;;;;;;;5049202;28;20025;-74
2023/08/13 02:53:36;;;;;;;2.90;2.30;;;;;;;;;;5049868;28;20029;-74
2023/08/13 02:56:03;;;;;;;5.60;2.45;;;;;;;;;;5050299;28;20503;-74
2023/08/13 02:58:29;;;;;;;2.70;1.98;;;;;;;;;;5049602;28;20160;-74
2023/08/13 03:00:54;;;;;;;3.08;2.40;;;;;;;;;;5050500;28;20053;-74
2023/08/13 03:03:20;;;;;;;5.80;2.75;;;;;;;;;;5050619;28;20104;-74
2023/08/13 03:05:47;;;;;;;5.55;2.65;;;;;;;;;;5050515;28;20100;-74
2023/08/13 03:08:13;;;;;;;4.45;2.45;;;;;;;;;;5048363;28;20052;-73
2023/08/13 03:10:39;;;;;;;4.80;2.47;;;;;;;;;;5050449;28;20037;-74
2023/08/13 03:13:05;;;;;;;4.32;2.45;;;;;;;;;;5050454;28;20025;-74
2023/08/13 03:15:31;;;;;;;2.92;2.17;;;;;;;;;;5050010;28;20048;-74
2023/08/13 03:17:57;;;;;;;4.55;2.38;;;;;;;;;;5052004;28;20111;-74
2023/08/13 03:20:23;;;;;;;5.07;2.53;;;;;;;;;;5054785;28;20551;-74
2023/08/13 03:22:49;;;;;;;6.43;2.65;;;;;;;;;;5054143;28;20170;-74
2023/08/13 03:25:15;;;;;;;3.05;2.70;;;;;;;;;;5052475;28;20017;-74
2023/08/13 03:27:41;;;;;;;4.70;2.58;;;;;;;;;;5053121;28;20067;-74
2023/08/13 03:30:07;;;;;;;3.08;2.30;;;;;;;;;;5052424;28;20047;-74
2023/08/13 03:32:33;;;;;;;6.65;2.30;;;;;;;;;;5053821;28;20056;-74
2023/08/13 03:34:59;;;;;;;3.63;2.08;;;;;;;;;;5053986;28;20027;-74
2023/08/13 03:37:25;;;;;;;2.65;2.30;;;;;;;;;;5053151;28;20532;-74
2023/08/13 03:39:51;;;;;;;3.88;2.78;;;;;;;;;;5053857;28;20013;-74
2023/08/13 03:42:17;;;;;;;3.88;2.45;;;;;;;;;;5052508;28;20083;-74
2023/08/13 03:44:44;;;;;;;5.35;2.42;;;;;;;;;;5053617;28;20480;-75
2023/08/13 03:47:10;;;;;;;3.60;2.30;;;;;;;;;;5052941;28;20052;-74
2023/08/13 03:49:36;;;;;;;3.10;2.10;;;;;;;;;;5053655;28;20504;-74
2023/08/13 03:52:02;;;;;;;4.30;2.70;;;;;;;;;;5053448;28;20031;-74
2023/08/13 03:54:28;;;;;;;5.30;2.70;;;;;;;;;;5053544;28;20017;-74
2023/08/13 03:56:54;;;;;;;5.78;2.53;;;;;;;;;;5053258;28;20025;-74
2023/08/13 03:59:20;;;;;;;4.72;2.40;;;;;;;;;;5051747;28;20040;-74
2023/08/13 04:01:46;;;;;;;5.93;2.70;;;;;;;;;;5052089;28;20029;-74
2023/08/13 04:04:12;;;;;;;3.83;2.78;;;;;;;;;;5051983;28;20033;-75
2023/08/13 04:06:38;;;;;;;2.95;2.15;;;;;;;;;;5053302;28;20044;-73
2023/08/13 04:09:05;;;;;;;5.00;2.50;;;;;;;;;;5052744;28;20021;-74
2023/08/13 04:11:31;;;;;;;3.97;2.20;;;;;;;;;;5054513;28;20036;-74
2023/08/13 04:13:57;;;;;;;3.80;2.58;;;;;;;;;;5051940;28;20108;-75
2023/08/13 04:16:23;;;;;;;5.28;2.80;;;;;;;;;;5053108;28;20475;-75
2023/08/13 04:18:50;;;;;;;10.18;5.72;;;;;;;;;;5052432;28;20461;-75
2023/08/13 04:21:16;;;;;;;9.10;4.75;;;;;;;;;;5052838;28;20476;-74
2023/08/13 04:23:42;;;;;;;3.85;2.83;;;;;;;;;;5051592;28;20021;-74
2023/08/13 04:26:08;;;;;;;16.80;11.32;;;;;;;;;;5053192;28;20032;-74
2023/08/13 04:28:34;;;;;;;2.72;2.30;;;;;;;;;;5051445;28;20100;-74
2023/08/13 04:31:00;;;;;;;4.80;2.33;;;;;;;;;;5052788;28;20552;-74
2023/08/13 04:33:26;;;;;;;5.15;2.92;;;;;;;;;;5055269;28;20048;-75
2023/08/13 04:35:53;;;;;;;6.80;2.67;;;;;;;;;;5061972;28;20021;-74
2023/08/13 04:38:20;;;;;;;3.58;2.38;;;;;;;;;;5063258;28;20028;-74
2023/08/13 04:40:49;;;;;;;4.47;2.35;;;;;;;;;;5062825;28;20029;-75
2023/08/13 04:43:15;;;;;;;3.03;2.53;;;;;;;;;;5062302;28;20029;-74
2023/08/13 04:45:41;;;;;;;3.25;2.30;;;;;;;;;;5052918;28;20021;-74
2023/08/13 04:48:07;;;;;;;3.40;2.55;;;;;;;;;;5052025;28;20033;-74
2023/08/13 04:50:33;;;;;;;4.53;2.50;;;;;;;;;;5052469;28;20025;-75
2023/08/13 04:52:59;;;;;;;4.25;2.60;;;;;;;;;;5052628;28;20514;-76
2023/08/13 04:55:25;;;;;;;4.80;2.85;;;;;;;;;;5052491;28;20032;-74
2023/08/13 04:57:51;;;;;;;3.83;2.30;;;;;;;;;;5051494;28;20052;-75
2023/08/13 05:00:17;;;;;;;3.05;2.45;;;;;;;;;;5052144;28;20547;-74
2023/08/13 05:02:43;;;;;;;6.03;2.50;;;;;;;;;;5050400;28;20036;-74
2023/08/13 05:05:09;;;;;;;2.80;2.30;;;;;;;;;;5051996;28;20127;-74
2023/08/13 05:07:35;;;;;;;3.00;2.25;;;;;;;;;;5050970;28;20021;-74
2023/08/13 05:10:01;;;;;;;3.13;2.15;;;;;;;;;;5050617;28;20025;-74
2023/08/13 05:12:27;;;;;;;2.42;2.15;;;;;;;;;;5051490;28;20025;-75
2023/08/13 05:14:53;;;;;;;2.83;2.05;;;;;;;;;;5051639;28;20032;-74
2023/08/13 05:17:20;;;;;;;2.70;2.00;;;;;;;;;;5051418;28;20017;-75
2023/08/13 05:19:46;;;;;;;2.10;1.67;;;;;;;;;;5052197;28;20428;-75
2023/08/13 05:22:12;;;;;;;4.05;1.77;;;;;;;;;;5051911;28;20059;-75
2023/08/13 05:24:38;;;;;;;2.60;1.90;;;;;;;;;;5052000;28;20025;-74
2023/08/13 05:27:04;;;;;;;5.57;2.38;;;;;;;;;;5051378;28;20447;-74
2023/08/13 05:29:30;;;;;;;2.78;1.90;;;;;;;;;;5051877;28;20025;-75
2023/08/13 05:31:56;;;;;;;4.20;2.15;;;;;;;;;;5051290;28;20437;-73
2023/08/13 05:34:22;;;;;;;3.47;2.40;;;;;;;;;;5049890;28;20035;-74
2023/08/13 05:36:49;;;;;;;3.00;1.77;;;;;;;;;;5051305;28;20025;-74
2023/08/13 05:39:15;;;;;;;5.85;2.47;;;;;;;;;;5050993;28;20096;-74
2023/08/13 05:41:41;;;;;;;4.22;2.10;;;;;;;;;;5050942;28;20060;-74
2023/08/13 05:44:07;;;;;;;4.13;2.60;;;;;;;;;;5051390;28;20056;-74
2023/08/13 05:46:33;;;;;;;4.53;2.42;;;;;;;;;;5051256;28;20029;-75
2023/08/13 05:48:59;;;;;;;4.35;2.28;;;;;;;;;;5051072;28;20025;-75
2023/08/13 05:51:25;;;;;;;3.03;1.65;;;;;;;;;;5050053;28;20116;-75
2023/08/13 05:53:51;;;;;;;3.35;2.03;;;;;;;;;;5050334;28;20052;-74
2023/08/13 05:56:17;;;;;;;2.65;1.67;;;;;;;;;;5050201;28;20021;-75
2023/08/13 05:58:43;;;;;;;2.75;2.00;;;;;;;;;;5050675;28;20017;-74
2023/08/13 06:01:10;;;;;;;6.03;2.03;;;;;;;;;;5053077;28;20029;-74
2023/08/13 06:03:36;;;;;;;6.10;2.05;;;;;;;;;;5051095;28;20032;-73
2023/08/13 06:06:03;;;;;;;2.42;1.83;;;;;;;;;;5051168;28;20025;-73
2023/08/13 06:08:29;;;;;;;2.88;2.17;;;;;;;;;;5050604;28;20056;-73
2023/08/13 06:11:04;;;;;;;4.57;2.47;;;;;;;;;;5053563;28;20025;-73
2023/08/13 06:13:30;;;;;;;6.00;1.98;;;;;;;;;;5050881;28;20549;-73
2023/08/13 06:15:55;;;;;;;3.28;1.92;;;33.70;46.20;;;;;;5051029;28;20484;-74
2023/08/13 06:18:24;;;;;;;4.88;1.65;;;34.40;43.80;;;;;;5049156;28;20028;-74
2023/08/13 06:20:49;;;;;;;3.10;2.22;;;34.80;42.80;;;;;;5050949;28;20021;-74
2023/08/13 06:23:15;;;;;;;2.50;1.70;;;34.50;42.70;;;;;;5050785;28;20105;-74
2023/08/13 06:25:40;;;;;;;3.85;1.75;;;34.00;43.90;;;;;;5050632;28;20029;-73
2023/08/13 06:28:06;;;;;;;6.43;1.80;;;;;;;;;;5050302;28;20056;-74
2023/08/13 06:30:32;;;;;;;3.47;1.92;;;;;;;;;;5049800;28;20085;-73
2023/08/13 06:32:58;;;;;;;2.45;1.73;;;30.00;52.30;;;;;;5050348;28;20028;-74
2023/08/13 06:35:24;;;;;;;5.05;2.15;;;30.00;52.40;;;;;;5050611;28;20484;-75
2023/08/13 06:37:49;;;;;;;2.40;1.50;;;30.40;52.70;;;;;;5049659;28;20404;-74
2023/08/13 06:40:15;;;;;;;2.97;1.67;;;31.40;49.70;;;;;;5049118;28;20021;-73
2023/08/13 06:42:40;;;;;;;2.75;1.58;;;31.90;48.70;;;;;;5049364;28;20449;-74
2023/08/13 06:45:07;;;;;;;3.22;1.77;;;32.50;47.10;;;;;;5050733;28;20112;-74
2023/08/13 06:47:32;;;;;;;2.97;1.80;;;33.00;46.00;;;;;;5050790;28;20415;-74
2023/08/13 06:49:58;;;;;;;2.53;1.80;;;32.20;47.30;;;;;;5050976;28;20021;-74
2023/08/13 06:52:24;;;;;;;2.72;1.50;;;31.50;49.00;;;;;;5053862;28;20029;-74
2023/08/13 06:54:50;;;;;;;3.45;1.60;;;31.30;50.30;;;;;;5053791;28;20488;-74
2023/08/13 06:57:16;;;;;;;2.70;1.70;;;31.30;50.50;;;;;;5054391;28;20032;-75
2023/08/13 06:59:42;;;;;;;7.80;2.20;;;;;;;;;;5055155;28;20052;-74
2023/08/13 07:02:08;;;;;;;5.03;2.40;;;;;;;;;;5054714;28;20132;-74
2023/08/13 07:04:34;;;;;;;4.88;2.50;;;;;;;;;;5055076;28;20028;-74
2023/08/13 07:07:00;;;;;;;3.55;2.28;;;;;;;;;;5056490;28;20025;-74
2023/08/13 07:09:27;;;;;;;2.33;1.88;;;;;;;;;;5062438;28;20036;-74
2023/08/13 07:11:53;;;;;;;5.70;2.15;;;;;;;;;;5065310;28;20044;-74
2023/08/13 07:14:19;;;;;;;3.33;2.22;;;30.00;53.90;;;;;;5064208;28;20040;-74
2023/08/13 07:16:47;;;;;;;2.85;2.20;;;30.20;52.80;;;;;;5055854;28;20021;-73
2023/08/13 07:19:13;;;;;;;2.20;2.00;;;31.30;50.40;;;;;;5054276;28;20028;-74
2023/08/13 07:21:39;;;;;;;5.32;2.17;;;;;;;;;;5054551;28;20028;-73
2023/08/13 07:24:05;;;;;;;3.55;1.90;;;33.90;44.20;;;;;;5054370;28;20032;-74
2023/08/13 07:26:31;;;;;;;2.40;1.90;;;34.40;43.50;;;;;;5054449;28;20037;-73
2023/08/13 07:28:57;;;;;;;1.77;1.67;;;33.80;43.20;;;;;;5052285;28;20035;-74
2023/08/13 07:31:23;;;;;;;4.43;2.22;;;;;;;;;;5053916;28;20412;-74
2023/08/13 07:33:49;;;;;;;2.83;1.90;;;;;;;;;;5053904;28;20112;-73
2023/08/13 07:36:15;;;;;;;5.18;2.10;;;31.30;50.20;;;;;;5054056;28;20040;-74
2023/08/13 07:38:40;;;;;;;3.17;1.70;;;31.60;49.70;;;;;;5051867;28;20029;-74
2023/08/13 07:41:06;;;;;;;3.15;1.65;;;32.20;46.90;;;;;;5053772;28;20036;-75
2023/08/13 07:43:32;;;;;;;3.55;2.25;;;31.40;48.60;;;;;;5052390;28;20071;-77
2023/08/13 07:45:58;;;;;;;2.92;1.95;;;;;;;;;;5053559;28;20499;-74
2023/08/13 07:48:24;;;;;;;3.03;2.20;;;;;;;;;;5053170;28;20021;-74
2023/08/13 07:50:50;;;;;;;3.22;2.28;;;;;;;;;;5053544;28;20028;-74
2023/08/13 07:53:16;;;;;;;5.53;2.50;;;;;;;;;;5052289;28;20021;-74
2023/08/13 07:55:43;;;;;;;3.80;2.53;;;;;;;;;;5052376;28;20021;-74
2023/08/13 07:58:09;;;;;;;2.88;2.00;;;;;;;;;;5053159;28;20029;-74
2023/08/13 08:00:34;;;;;;;2.72;1.85;;;30.70;52.90;;;;;;5052212;28;20035;-75
2023/08/13 08:03:00;;;;;;;2.85;1.83;;;30.80;52.00;;;;;;5052340;28;20100;-74
2023/08/13 08:05:26;;;;;;;2.42;2.00;;;;;;;;;;5053478;28;20067;-74
2023/08/13 08:07:52;;;;;;;2.40;1.67;;;;;;;;;;5052905;28;20388;-74
2023/08/13 08:10:18;;;;;;;4.20;2.10;;;;;;;;;;5052488;28;20458;-75
2023/08/13 08:12:44;;;;;;;2.28;1.85;;;;;;;;;;5053439;28;20131;-75
2023/08/13 08:15:10;;;;;;;2.40;1.90;;;;;;;;;;5056044;28;20036;-75
2023/08/13 08:17:37;;;;;;;3.58;1.75;;;;;;;;;;5054724;28;20888;-75
2023/08/13 08:20:03;;;;;;;3.40;2.00;;;;;;;;;;5057545;28;20403;-73
2023/08/13 08:22:29;;;;;;;2.60;1.88;;;30.00;52.20;;;;;;5063970;28;20025;-74
2023/08/13 08:24:55;;;;;;;2.40;2.03;;;30.50;51.20;;;;;;5064507;28;20116;-74
2023/08/13 08:27:21;;;;;;;2.30;2.08;;;;;;;;;;5062343;28;20032;-73
2023/08/13 08:29:47;;;;;;;2.65;2.33;;;;;;;;;;5060073;28;20032;-74
2023/08/13 08:32:13;;;;;;;2.67;2.00;;;;;;;;;;5060505;28;20029;-74
2023/08/13 08:34:39;;;;;;;2.80;2.08;;;;;;;;;;5063195;28;20444;-74
2023/08/13 08:37:05;;;;;;;3.92;2.00;;;29.50;54.30;;;;;;5064529;28;20021;-71
2023/08/13 08:39:31;;;;;;;1.92;1.73;;;29.70;52.90;;;;;;5064592;28;20025;-74
2023/08/13 08:41:57;;;;;;;3.25;2.00;;;30.20;52.80;;;;;;5057571;28;20021;-74
2023/08/13 08:44:24;;;;;;;2.00;1.80;;;30.40;50.90;;;;;;5052673;28;20021;-74
2023/08/13 08:46:51;;;;;;;2.13;1.92;;;;;;;;;;5052657;28;20036;-74
2023/08/13 08:49:26;;;;;;;2.50;1.90;;;;;;;;;;5052274;28;20024;-74
2023/08/13 08:51:53;;;;;;;4.93;2.60;;;;;;;;;;5052693;28;20037;-74
2023/08/13 08:54:20;;;;;;;3.45;2.30;;;;;;;;;;5051503;28;20022;-75
2023/08/13 08:56:46;;;;;;;3.10;2.10;;;;;;;;;;5052454;28;20044;-74
2023/08/13 08:59:12;;;;;;;3.47;2.10;;;;;;;;;;5050940;28;20021;-75
2023/08/13 09:01:39;;;;;;;2.45;1.98;;;29.40;54.70;;;;;;5052463;28;20032;-74
2023/08/13 09:04:05;;;;;;;3.05;2.38;;;;;;;;;;5052326;28;20016;-74
2023/08/13 09:06:57;;;;;;;5.20;2.33;;;33.50;45.30;;;;;;5052163;28;20028;-74
2023/08/13 09:09:24;;;;;;;3.42;1.90;;;33.70;44.60;;;;;;5052136;28;20052;-75
2023/08/13 09:11:50;;;;;;;4.43;2.10;;;32.80;44.30;;;;;;5052015;28;20100;-74
2023/08/13 09:14:16;;;;;;;4.50;1.95;;;;;;;;;;5050215;28;20471;-74
2023/08/13 09:16:46;;;;;;;2.85;1.80;;;32.30;45.90;;;;;;5051959;28;20554;-75
2023/08/13 09:19:13;;;;;;;4.43;2.00;;;32.20;46.20;;;;;;5051456;28;20049;-74
2023/08/13 09:21:40;;;;;;;2.42;1.83;;;31.80;46.80;;;;;;5052241;28;20286;-74
2023/08/13 09:24:07;;;;;;;2.60;2.17;;;31.50;48.10;;;;;;5050530;28;20550;-75
2023/08/13 09:26:33;;;;;;;3.33;1.75;;;31.70;48.10;;;;;;5051980;28;20057;-73
2023/08/13 09:28:59;;;;;;;4.43;1.75;;;32.80;45.50;;;;;;5051529;28;20507;-75
2023/08/13 09:31:25;;;;;;;2.33;2.10;;;33.10;44.30;;;;;;5051531;28;20056;-75
2023/08/13 09:33:52;;;;;;;3.95;2.10;;;32.90;46.10;;;;;;5049918;28;20048;-75
2023/08/13 09:36:18;;;;;;;2.45;1.58;;;32.70;45.80;;;;;;5054273;28;20075;-75
2023/08/13 09:38:43;;;;;;;2.63;1.88;;;32.50;45.70;;;;;;5054378;28;20025;-75
2023/08/13 09:41:13;;;;;;;2.60;1.90;;;32.20;47.30;;;;;;5060366;28;20033;-75
2023/08/13 09:43:39;;;;;;;3.10;1.98;;;32.10;47.00;;;;;;5060663;28;20028;-75
2023/08/13 09:46:06;;;;;;;2.88;1.67;;;31.80;47.20;;;;;;5053878;28;20031;-75
2023/08/13 09:48:33;;;;;;;2.80;1.90;;;31.80;47.80;;;;;;5052989;28;20025;-75
2023/08/13 09:51:01;;;;;;;2.40;1.85;;;32.00;48.20;;;;;;5050924;28;20120;-74
2023/08/13 09:53:29;;;;;;;3.03;1.90;;;31.90;47.30;;;;;;5051931;28;20045;-74
2023/08/13 09:55:57;;;;;;;2.10;1.70;;;31.80;47.50;;;;;;5051987;28;20029;-75
2023/08/13 09:58:23;;;;;;;3.30;1.70;;;;;;;;;;5052747;28;20047;-75
2023/08/13 10:00:50;;;;;;;3.30;2.08;;;;;;;;;;5051977;28;20135;-75
2023/08/13 10:03:19;;;;;;;2.63;2.15;;;;;;;;;;5053389;28;20100;-75
2023/08/13 10:05:45;;;;;;;4.07;2.15;;;;;;;;;;5052534;28;20028;-75
2023/08/13 10:08:12;;;;;;;4.45;2.88;;;;;;;;;;5053853;28;20095;-75
2023/08/13 10:10:38;;;;;;;2.42;2.15;;;;;;;;;;5065623;28;20025;-74
2023/08/13 10:13:05;;;;;;;5.85;2.60;;;;;;;;;;5066136;28;20031;-75
2023/08/13 10:15:36;;;;;;;4.18;2.13;;;30.80;51.60;;;;;;5067109;28;20037;-75
2023/08/13 10:18:02;;;;;;;4.15;1.95;;;31.10;49.60;;;;;;5068868;28;20473;-74
2023/08/13 10:20:28;;;;;;;4.13;1.63;;;31.20;48.10;;;;;;5070576;28;20021;-74
2023/08/13 10:22:54;;;;;;;4.85;3.13;;;;;;;;;;5071634;28;20021;-74
2023/08/13 10:25:32;;;;;;;2.58;2.35;;;;;;;;;;5052912;28;20079;-73
2023/08/13 10:27:58;;;;;;;4.95;2.95;;;;;;;;;;5050638;28;20028;-73
2023/08/13 10:30:24;;;;;;;4.10;2.33;;;;;;;;;;5051093;28;20025;-73
2023/08/13 10:33:01;;;;;;;3.83;1.83;;;;;;;;;;5050887;28;20029;-74
2023/08/13 10:35:26;;;;;;;2.80;2.10;;;;;;;;;;5051123;28;20021;-74
2023/08/13 10:37:56;;;;;;;2.47;2.20;;;;;;;;;;5051859;28;20036;-74
2023/08/13 10:40:22;;;;;;;4.75;2.08;;;;;;;;;;5048548;28;20021;-74
2023/08/13 10:42:52;;;;;;;2.40;2.20;;;;;;;;;;5051238;28;20025;-74
2023/08/13 10:45:19;;;;;;;3.90;3.50;;;;;;;;;;5051298;28;20471;-75
2023/08/13 10:48:00;;;;;;;1.75;1.40;;;;;;;;;;5050225;28;20040;-75
2023/08/13 10:50:27;;;;;;;2.00;1.60;;;;;;;;;;5050934;28;20051;-75
2023/08/13 10:52:54;;;;;;;2.38;2.10;;;;;;;;;;5050641;28;20029;-74
2023/08/13 10:55:24;;;;;;;4.53;2.00;;;;;;;;;;5050007;28;20105;-74
2023/08/13 10:57:53;;;;;;;3.60;1.85;;;;;;;;;;5049837;28;20025;-74
2023/08/13 11:00:21;;;;;;;1.95;1.50;;;;;;;;;;5050796;28;20078;-74
2023/08/13 11:02:50;;;;;;;3.60;2.85;;;;;;;;;;5050537;28;20029;-74
2023/08/13 11:05:16;;;;;;;2.47;1.90;;;;;;;;;;5050518;28;20091;-74
2023/08/13 11:07:43;;;;;;;5.47;1.90;;;;;;;;;;5049811;28;20092;-74
2023/08/13 11:10:15;;;;;;;2.03;1.50;;;;;;;;;;5049396;28;20032;-74
2023/08/13 11:12:41;;;;;;;2.72;1.80;;;;;;;;;;5049501;28;20067;-74
2023/08/13 11:15:07;;;;;;;2.65;1.70;;;;;;;;;;5049155;28;20037;-74
2023/08/13 11:17:34;;;;;;;2.25;1.70;;;;;;;;;;5049992;28;20074;-73
2023/08/13 11:20:05;;;;;;;2.78;1.52;;;;;;;;;;5050341;28;20025;-73
2023/08/13 11:22:31;;;;;;;1.83;1.73;;;30.00;51.60;;;;;;5050407;28;20443;-74
2023/08/13 11:24:56;;;;;;;2.97;1.90;;;30.20;50.00;;;;;;5050508;28;20114;-74
2023/08/13 11:27:28;;;;;;;1.60;1.48;;;;;;;;;;5049870;28;20028;-73
2023/08/13 11:29:54;;;;;;;2.17;1.60;;;;;;;;;;5050446;28;20021;-75
2023/08/13 11:32:20;;;;;;;2.80;1.85;;;;;;;;;;5048952;28;20030;-74
2023/08/13 11:34:45;;;;;;;6.40;2.20;;;30.00;50.70;;;;;;5049992;28;20021;-74
2023/08/13 11:37:12;;;;;;;3.20;1.83;;;30.20;49.80;;;;;;5050454;28;20075;-74
2023/08/13 11:39:38;;;;;;;2.53;1.77;;;;;;;;;;5054147;28;20013;-75
2023/08/13 11:42:08;;;;;;;2.45;1.55;;;;;;;;;;5053886;28;20025;-74
2023/08/13 11:44:34;;;;;;;1.60;1.50;;;;;;;;;;5052962;28;20025;-74
2023/08/13 11:47:00;;;;;;;7.78;1.88;;;;;;;;;;5053004;28;20096;-74
2023/08/13 11:49:27;;;;;;;2.47;1.88;;;;;;;;;;5053710;28;20028;-74
2023/08/13 11:51:56;;;;;;;4.53;1.73;;;;;;;;;;5053513;28;20053;-74
2023/08/13 11:54:22;;;;;;;1.65;1.45;;;;;;;;;;5052465;28;20028;-73
2023/08/13 11:56:52;;;;;;;1.90;1.45;;;;;;;;;;5052003;28;20021;-73
2023/08/13 11:59:29;;;;;;;1.48;1.38;;;;;;;;;;5052947;28;20021;-73
2023/08/13 12:01:56;;;;;;;1.80;1.70;;;29.90;52.00;;;;;;5053591;28;20025;-74
2023/08/13 12:04:23;;;;;;;1.45;1.35;;;;;;;;;;5051996;28;20035;-74
2023/08/13 12:06:49;;;;;;;2.08;1.60;;;;;;;;;;5053480;28;20411;-73
2023/08/13 12:09:15;;;;;;;1.80;1.70;;;;;;;;;;5056614;28;20048;-73
2023/08/13 12:11:41;;;;;;;1.70;1.55;;;;;;;;;;5059268;28;20033;-74
2023/08/13 12:14:08;;;;;;;6.47;2.20;;;;;;;;;;5060716;28;20021;-74
2023/08/13 12:16:34;;;;;;;1.95;1.75;;;;;;;;;;5061148;28;20024;-74
2023/08/13 12:19:06;;;;;;;3.17;1.52;;;;;;;;;;5061558;28;20025;-74
2023/08/13 12:21:33;;;;;;;4.28;1.75;;;;;;;;;;5053761;28;20100;-74
2023/08/13 12:23:59;;;;;;;2.97;1.48;;;;;;;;;;5053060;28;20105;-74
2023/08/13 12:26:26;;;;;;;2.25;1.50;;;;;;;;;;5051507;28;20028;-74
2023/08/13 12:28:52;;;;;;;2.25;2.05;;;;;;;;;;5051282;28;20386;-74
2023/08/13 12:31:18;;;;;;;2.22;1.75;;;;;;;;;;5052917;28;20032;-73
2023/08/13 12:33:45;;;;;;;2.97;1.50;;;;;;;;;;5055984;28;20110;-73
2023/08/13 12:36:11;;;;;;;3.78;2.03;;;;;;;;;;5056128;28;20392;-74
2023/08/13 12:38:39;;;;;;;2.90;1.90;;;;;;;;;;5051560;28;20124;-74
2023/08/13 12:41:05;;;;;;;3.53;1.80;;;;;;;;;;5052620;28;20021;-74
2023/08/13 12:43:31;;;;;;;2.10;1.63;;;;;;;;;;5051434;28;20033;-74
2023/08/13 12:45:57;;;;;;;3.80;1.80;;;;;;;;;;5052737;28;20029;-74
2023/08/13 12:48:23;;;;;;;2.80;1.73;;;;;;;;;;5051552;28;20357;-74
2023/08/13 12:50:50;;;;;;;3.80;1.60;;;;;;;;;;5051381;28;20442;-74
2023/08/13 12:53:16;;;;;;;2.17;1.40;;;;;;;;;;5052541;28;20025;-73
2023/08/13 12:55:42;;;;;;;3.25;1.77;;;;;;;;;;5052670;28;20052;-74
2023/08/13 12:58:08;;;;;;;1.90;1.80;;;;;;;;;;5051873;28;20056;-74
2023/08/13 13:00:34;;;;;;;2.40;2.20;;;;;;;;;;5050864;28;20063;-74
2023/08/13 13:03:00;;;;;;;2.00;1.67;;;;;;;;;;5052702;28;20457;-75
2023/08/13 13:05:26;;;;;;;3.13;1.80;;;;;;;;;;5052123;28;20107;-74
2023/08/13 13:07:52;;;;;;;2.75;1.80;;;;;;;;;;5051409;28;20028;-74
2023/08/13 13:10:18;;;;;;;1.88;1.50;;;;;;;;;;5052093;28;20021;-74
2023/08/13 13:12:44;;;;;;;3.60;1.65;;;;;;;;;;5052354;28;20508;-73
2023/08/13 13:15:10;;;;;;;2.15;1.50;;;;;;;;;;5052423;28;20060;-74
2023/08/13 13:17:36;;;;;;;2.88;1.75;;;;;;;;;;5051519;28;20025;-73
2023/08/13 13:20:10;;;;;;;3.47;1.75;;;;;;;;;;5052361;28;20021;-73
2023/08/13 13:22:36;;;;;;;1.55;1.42;;;;;;;;;;5053171;28;20462;-74
2023/08/13 13:25:02;;;;;;;2.35;1.80;;;;;;;;;;5050761;28;20496;-74
2023/08/13 13:27:28;;;;;;;1.65;1.48;;;;;;;;;;5053853;28;20084;-76
2023/08/13 13:29:54;;;;;;;3.10;2.00;;;;;;;;;;5057017;28;20056;-74
2023/08/13 13:32:20;;;;;;;1.90;1.67;;;;;;;;;;5057007;28;20035;-74
2023/08/13 13:34:46;;;;;;;1.92;1.75;;;;;;;;;;5056018;28;20037;-74
2023/08/13 13:37:12;;;;;;;2.67;1.60;;;29.90;51.00;;;;;;5054916;28;20017;-74
2023/08/13 13:39:37;;;;;;;1.92;1.52;;;30.20;51.20;;;;;;5055753;28;20424;-75
2023/08/13 13:42:03;;;;;;;2.88;1.50;;;30.10;48.30;;;;;;5055969;28;20082;-74
2023/08/13 13:44:29;;;;;;;2.22;1.75;;;30.00;49.20;;;;;;5054211;28;20033;-75
2023/08/13 13:46:55;;;;;;;2.05;1.58;;;;;;;;;;5049681;28;20020;-74
2023/08/13 13:49:21;;;;;;;4.20;2.25;;;;;;;;;;5050997;28;20111;-74
2023/08/13 13:51:47;;;;;;;4.82;2.00;;;;;;;;;;5049794;28;20449;-74
2023/08/13 13:54:13;;;;;;;1.60;1.48;;;;;;;;;;5050316;28;20055;-75
2023/08/13 13:56:39;;;;;;;3.95;1.48;;;;;;;;;;5051052;28;20444;-74
2023/08/13 13:59:05;;;;;;;2.30;1.80;;;;;;;;;;5050649;28;20021;-74
2023/08/13 14:01:31;;;;;;;2.63;1.90;;;;;;;;;;5051151;28;20039;-74
2023/08/13 14:03:57;;;;;;;1.73;1.63;;;;;;;;;;5055889;28;20481;-73
2023/08/13 14:06:23;;;;;;;1.73;1.63;;;;;;;;;;5051125;28;20108;-74
2023/08/13 14:08:49;;;;;;;2.33;2.03;;;;;;;;;;5050366;28;20025;-73
2023/08/13 14:11:15;;;;;;;3.67;1.77;;;;;;;;;;5051094;28;20021;-74
2023/08/13 14:13:41;;;;;;;2.15;1.67;;;;;;;;;;5051010;28;20075;-74
2023/08/13 14:16:07;;;;;;;2.10;1.67;;;;;;;;;;5052182;28;20021;-74